createdAt,value
2019-02-08T00:00:00.128Z,41.23
2019-02-08T00:01:00.807Z,41.24
2019-02-08T00:02:01.228Z,41.24
2019-02-08T00:03:00.099Z,41.21
2019-02-08T00:04:00.087Z,41.24
2019-02-08T00:04:59.883Z,41.2
2019-02-08T00:06:00.100Z,41.24
2019-02-08T00:07:03.074Z,41.2
2019-02-08T00:07:59.934Z,41.23
2019-02-08T00:09:00.031Z,41.22
2019-02-08T00:09:59.879Z,41.22
2019-02-08T00:11:00.129Z,41.25
2019-02-08T00:12:00.146Z,41.26
2019-02-08T00:12:59.876Z,41.21
2019-02-08T00:14:00.874Z,41.24
2019-02-08T00:15:00.457Z,41.28
2019-02-08T00:16:00.434Z,41.24
2019-02-08T00:17:00.070Z,41.21
2019-02-08T00:17:59.950Z,41.24
2019-02-08T00:18:59.909Z,41.26
2019-02-08T00:20:00.508Z,41.24
2019-02-08T00:21:00.293Z,41.29
2019-02-08T00:22:02.357Z,41.26
2019-02-08T00:23:00.418Z,41.28
2019-02-08T00:24:00.028Z,41.26
2019-02-08T00:25:00.861Z,41.23
2019-02-08T00:26:00.857Z,41.29
2019-02-08T00:26:59.890Z,41.21
2019-02-08T00:28:00.144Z,41.24
2019-02-08T00:29:00.640Z,41.26
2019-02-08T00:29:59.948Z,41.32
2019-02-08T00:30:59.664Z,41.26
2019-02-08T00:32:00.140Z,41.23
2019-02-08T00:33:00.116Z,41.27
2019-02-08T00:33:59.935Z,41.27
2019-02-08T00:35:01.301Z,41.25
2019-02-08T00:36:00.216Z,41.27
2019-02-08T00:37:02.364Z,41.3
2019-02-08T00:38:00.564Z,41.3
2019-02-08T00:38:59.965Z,41.3
2019-02-08T00:40:00.028Z,41.3
2019-02-08T00:40:59.886Z,41.27
2019-02-08T00:42:00.439Z,41.34
2019-02-08T00:43:00.167Z,41.3
2019-02-08T00:44:01.394Z,41.28
2019-02-08T00:44:59.863Z,41.28
2019-02-08T00:46:00.131Z,41.32
2019-02-08T00:47:00.905Z,41.3
2019-02-08T00:47:59.911Z,41.3
2019-02-08T00:49:00.542Z,41.27
2019-02-08T00:49:59.830Z,41.31
2019-02-08T00:51:00.134Z,41.28
2019-02-08T00:52:02.678Z,41.33
2019-02-08T00:53:00.167Z,41.33
2019-02-08T00:54:01.269Z,41.26
2019-02-08T00:54:59.834Z,41.33
2019-02-08T00:55:59.928Z,41.28
2019-02-08T00:56:59.952Z,41.24
2019-02-08T00:58:00.572Z,41.32
2019-02-08T00:59:01.239Z,41.33
2019-02-08T01:00:00.298Z,41.38
2019-02-08T01:00:59.877Z,41.33
2019-02-08T01:02:00.376Z,41.29
2019-02-08T01:02:59.608Z,41.33
2019-02-08T01:04:00.057Z,41.34
2019-02-08T01:04:59.860Z,41.29
2019-02-08T01:05:59.766Z,41.34
2019-02-08T01:07:02.474Z,41.37
2019-02-08T01:08:01.391Z,41.32
2019-02-08T01:09:00.347Z,41.35
2019-02-08T01:10:01.039Z,41.34
2019-02-08T01:11:00.820Z,41.34
2019-02-08T01:12:00.266Z,41.32
2019-02-08T01:13:00.306Z,41.32
2019-02-08T01:14:01.809Z,41.31
2019-02-08T01:15:00.626Z,41.31
2019-02-08T01:16:00.029Z,41.3
2019-02-08T01:17:00.791Z,41.35
2019-02-08T01:18:00.230Z,41.32
2019-02-08T01:19:00.430Z,41.32
2019-02-08T01:20:00.096Z,41.37
2019-02-08T01:21:00.142Z,41.32
2019-02-08T01:21:59.923Z,41.32
2019-02-08T01:23:00.084Z,41.35
2019-02-08T01:24:00.619Z,41.37
2019-02-08T01:25:00.018Z,41.33
2019-02-08T01:26:00.221Z,41.38
2019-02-08T01:27:00.609Z,41.35
2019-02-08T01:28:00.452Z,41.36
2019-02-08T01:29:00.346Z,41.4
2019-02-08T01:30:00.407Z,41.4
2019-02-08T01:31:00.222Z,41.38
2019-02-08T01:31:59.991Z,41.36
2019-02-08T01:32:59.730Z,41.34
2019-02-08T01:34:00.838Z,41.36
2019-02-08T01:35:00.014Z,41.38
2019-02-08T01:35:59.783Z,41.38
2019-02-08T01:37:00.105Z,41.37
2019-02-08T01:38:00.034Z,41.39
2019-02-08T01:39:00.424Z,41.39
2019-02-08T01:40:01.646Z,41.38
2019-02-08T01:41:01.791Z,41.39
2019-02-08T01:42:00.330Z,41.38
2019-02-08T01:43:00.260Z,41.37
2019-02-08T01:43:59.845Z,41.37
2019-02-08T01:44:59.880Z,41.42
2019-02-08T01:45:59.800Z,41.42
2019-02-08T01:46:59.968Z,41.34
2019-02-08T01:47:59.946Z,41.41
2019-02-08T01:49:00.087Z,41.42
2019-02-08T01:49:59.935Z,41.39
2019-02-08T01:51:00.097Z,41.38
2019-02-08T01:52:00.111Z,41.39
2019-02-08T01:52:59.711Z,41.36
2019-02-08T01:54:00.017Z,41.41
2019-02-08T01:54:59.884Z,41.36
2019-02-08T01:55:59.935Z,41.34
2019-02-08T01:56:59.964Z,41.32
2019-02-08T01:57:59.915Z,41.39
2019-02-08T01:58:59.950Z,41.4
2019-02-08T01:59:59.869Z,41.39
2019-02-08T02:00:59.736Z,41.37
2019-02-08T02:01:59.812Z,41.36
2019-02-08T02:03:00.196Z,41.4
2019-02-08T02:04:00.087Z,41.39
2019-02-08T02:05:00.244Z,41.37
2019-02-08T02:05:59.849Z,41.34
2019-02-08T02:06:59.735Z,41.4
2019-02-08T02:08:00.154Z,41.4
2019-02-08T02:08:59.918Z,41.4
2019-02-08T02:09:59.787Z,41.4
2019-02-08T02:11:00.324Z,41.37
2019-02-08T02:12:00.048Z,41.4
2019-02-08T02:12:59.679Z,41.4
2019-02-08T02:13:59.912Z,41.4
2019-02-08T02:15:00.528Z,41.44
2019-02-08T02:16:00.275Z,41.38
2019-02-08T02:17:00.019Z,41.42
2019-02-08T02:18:00.395Z,41.43
2019-02-08T02:18:59.785Z,41.42
2019-02-08T02:20:00.975Z,41.4
2019-02-08T02:20:59.513Z,41.42
2019-02-08T02:22:00.659Z,41.39
2019-02-08T02:22:59.740Z,41.48
2019-02-08T02:24:00.371Z,41.51
2019-02-08T02:25:00.030Z,41.42
2019-02-08T02:26:00.346Z,41.42
2019-02-08T02:26:59.754Z,41.45
2019-02-08T02:27:59.649Z,41.46
2019-02-08T02:29:00.563Z,41.45
2019-02-08T02:29:59.900Z,41.42
2019-02-08T02:31:00.078Z,41.42
2019-02-08T02:31:59.998Z,41.45
2019-02-08T02:33:01.006Z,41.43
2019-02-08T02:33:59.852Z,41.43
2019-02-08T02:34:59.834Z,41.43
2019-02-08T02:36:00.973Z,41.47
2019-02-08T02:37:00.433Z,41.47
2019-02-08T02:37:59.963Z,41.43
2019-02-08T02:38:59.789Z,41.47
2019-02-08T02:40:00.018Z,41.46
2019-02-08T02:41:01.654Z,41.42
2019-02-08T02:42:00.143Z,41.43
2019-02-08T02:43:00.068Z,41.45
2019-02-08T02:44:00.726Z,41.44
2019-02-08T02:45:00.327Z,41.46
2019-02-08T02:45:59.777Z,41.44
2019-02-08T02:47:00.452Z,41.48
2019-02-08T02:47:59.914Z,41.48
2019-02-08T02:48:59.921Z,41.43
2019-02-08T02:50:00.506Z,41.44
2019-02-08T02:51:00.407Z,41.5
2019-02-08T02:51:59.515Z,41.45
2019-02-08T02:53:00.262Z,41.44
2019-02-08T02:54:05.328Z,41.44
2019-02-08T02:54:59.829Z,41.45
2019-02-08T02:56:00.039Z,41.44
2019-02-08T02:56:59.819Z,41.47
2019-02-08T02:57:59.765Z,41.49
2019-02-08T02:58:59.932Z,41.5
2019-02-08T02:59:59.875Z,41.48
2019-02-08T03:01:00.448Z,41.45
2019-02-08T03:01:59.851Z,41.49
2019-02-08T03:03:00.247Z,41.45
2019-02-08T03:04:00.368Z,41.51
2019-02-08T03:04:59.887Z,41.46
2019-02-08T03:05:59.577Z,41.46
2019-02-08T03:07:00.159Z,41.48
2019-02-08T03:08:00.360Z,41.49
2019-02-08T03:08:59.636Z,41.47
2019-02-08T03:10:00.411Z,41.49
2019-02-08T03:11:01.558Z,41.49
2019-02-08T03:12:00.057Z,41.49
2019-02-08T03:13:00.370Z,41.47
2019-02-08T03:14:00.087Z,41.45
2019-02-08T03:15:00.321Z,41.5
2019-02-08T03:15:59.818Z,41.55
2019-02-08T03:17:00.094Z,41.5
2019-02-08T03:18:00.154Z,41.51
2019-02-08T03:18:59.814Z,41.5
2019-02-08T03:19:59.961Z,41.54
2019-02-08T03:21:00.057Z,41.48
2019-02-08T03:21:59.759Z,41.52
2019-02-08T03:23:00.277Z,41.47
2019-02-08T03:23:59.954Z,41.48
2019-02-08T03:24:59.857Z,41.51
2019-02-08T03:25:59.817Z,41.52
2019-02-08T03:27:01.761Z,41.51
2019-02-08T03:27:59.897Z,41.54
2019-02-08T03:28:59.948Z,41.49
2019-02-08T03:29:59.897Z,41.52
2019-02-08T03:31:00.159Z,41.52
2019-02-08T03:32:00.041Z,41.53
2019-02-08T03:32:59.653Z,41.53
2019-02-08T03:34:00.011Z,41.56
2019-02-08T03:34:59.935Z,41.54
2019-02-08T03:36:01.604Z,41.49
2019-02-08T03:37:00.169Z,41.54
2019-02-08T03:38:00.031Z,41.56
2019-02-08T03:38:59.920Z,41.55
2019-02-08T03:40:00.439Z,41.53
2019-02-08T03:41:00.056Z,41.54
2019-02-08T03:42:00.125Z,41.52
2019-02-08T03:42:59.927Z,41.53
2019-02-08T03:43:59.894Z,41.59
2019-02-08T03:44:59.833Z,41.55
2019-02-08T03:46:00.109Z,41.52
2019-02-08T03:47:00.221Z,41.55
2019-02-08T03:48:00.138Z,41.55
2019-02-08T03:49:00.514Z,41.58
2019-02-08T03:49:59.646Z,41.57
2019-02-08T03:51:01.645Z,41.57
2019-02-08T03:51:59.887Z,41.55
2019-02-08T03:53:00.021Z,41.59
2019-02-08T03:53:59.914Z,41.54
2019-02-08T03:55:00.399Z,41.55
2019-02-08T03:56:00.068Z,41.58
2019-02-08T03:56:59.763Z,41.58
2019-02-08T03:58:00.098Z,41.59
2019-02-08T03:59:00.737Z,41.56
2019-02-08T04:00:00.378Z,41.56
2019-02-08T04:01:00.429Z,41.59
2019-02-08T04:02:00.433Z,41.57
2019-02-08T04:02:59.859Z,41.6
2019-02-08T04:04:00.120Z,41.6
2019-02-08T04:04:59.755Z,41.61
2019-02-08T04:06:00.131Z,41.56
2019-02-08T04:07:00.404Z,41.6
2019-02-08T04:08:00.268Z,41.59
2019-02-08T04:09:00.173Z,41.59
2019-02-08T04:09:59.846Z,41.63
2019-02-08T04:11:00.290Z,41.6
2019-02-08T04:12:00.298Z,41.59
2019-02-08T04:12:59.893Z,41.59
2019-02-08T04:13:59.870Z,41.61
2019-02-08T04:15:01.632Z,41.56
2019-02-08T04:16:00.110Z,41.6
2019-02-08T04:17:00.119Z,41.57
2019-02-08T04:17:59.821Z,41.62
2019-02-08T04:18:59.631Z,41.6
2019-02-08T04:19:59.639Z,41.59
2019-02-08T04:20:59.991Z,41.57
2019-02-08T04:21:59.893Z,41.61
2019-02-08T04:23:00.364Z,41.6
2019-02-08T04:23:59.794Z,41.59
2019-02-08T04:24:59.936Z,41.59
2019-02-08T04:26:00.026Z,41.64
2019-02-08T04:26:59.688Z,41.59
2019-02-08T04:28:00.435Z,41.6
2019-02-08T04:29:00.611Z,41.56
2019-02-08T04:29:59.923Z,41.57
2019-02-08T04:31:00.014Z,41.61
2019-02-08T04:32:00.142Z,41.6
2019-02-08T04:33:01.403Z,41.6
2019-02-08T04:33:59.870Z,41.62
2019-02-08T04:35:00.755Z,41.61
2019-02-08T04:35:59.603Z,41.6
2019-02-08T04:37:00.162Z,41.64
2019-02-08T04:38:00.183Z,41.64
2019-02-08T04:38:59.961Z,41.62
2019-02-08T04:40:00.519Z,41.62
2019-02-08T04:41:01.485Z,41.61
2019-02-08T04:42:00.349Z,41.64
2019-02-08T04:43:00.176Z,41.62
2019-02-08T04:44:00.161Z,41.6
2019-02-08T04:44:59.766Z,41.66
2019-02-08T04:46:00.011Z,41.64
2019-02-08T04:47:01.590Z,41.62
2019-02-08T04:47:59.858Z,41.66
2019-02-08T04:48:59.573Z,41.69
2019-02-08T04:50:00.402Z,41.67
2019-02-08T04:50:59.911Z,41.65
2019-02-08T04:51:59.951Z,41.69
2019-02-08T04:53:00.297Z,41.62
2019-02-08T04:54:01.677Z,41.61
2019-02-08T04:54:59.730Z,41.63
2019-02-08T04:55:59.882Z,41.63
2019-02-08T04:56:59.932Z,41.59
2019-02-08T04:58:00.134Z,41.59
2019-02-08T04:58:59.887Z,41.59
2019-02-08T05:00:01.588Z,41.59
2019-02-08T05:01:00.731Z,41.57
2019-02-08T05:02:00.518Z,41.53
2019-02-08T05:03:00.046Z,41.59
2019-02-08T05:04:00.374Z,41.57
2019-02-08T05:04:59.848Z,41.55
2019-02-08T05:06:00.061Z,41.54
2019-02-08T05:06:59.762Z,41.54
2019-02-08T05:07:59.983Z,41.52
2019-02-08T05:08:59.974Z,41.51
2019-02-08T05:10:00.658Z,41.54
2019-02-08T05:10:59.896Z,41.54
2019-02-08T05:11:59.913Z,41.54
2019-02-08T05:12:59.683Z,41.51
2019-02-08T05:14:00.055Z,41.51
2019-02-08T05:15:00.003Z,41.51
2019-02-08T05:15:59.855Z,41.47
2019-02-08T05:17:00.097Z,41.44
2019-02-08T05:18:01.685Z,41.42
2019-02-08T05:18:59.701Z,41.39
2019-02-08T05:20:00.260Z,41.4
2019-02-08T05:20:59.945Z,41.36
2019-02-08T05:21:59.890Z,41.35
2019-02-08T05:23:00.510Z,41.33
2019-02-08T05:23:59.971Z,41.43
2019-02-08T05:24:59.859Z,41.4
2019-02-08T05:26:00.101Z,41.39
2019-02-08T05:26:59.515Z,41.35
2019-02-08T05:28:00.003Z,41.36
2019-02-08T05:29:01.554Z,41.41
2019-02-08T05:29:59.722Z,41.36
2019-02-08T05:31:00.071Z,41.33
2019-02-08T05:31:59.907Z,41.35
2019-02-08T05:33:00.184Z,41.35
2019-02-08T05:33:59.817Z,41.39
2019-02-08T05:35:00.819Z,41.38
2019-02-08T05:35:59.605Z,41.36
2019-02-08T05:37:01.595Z,41.41
2019-02-08T05:37:59.721Z,41.36
2019-02-08T05:39:00.241Z,41.37
2019-02-08T05:39:59.822Z,41.41
2019-02-08T05:41:01.556Z,41.41
2019-02-08T05:41:59.944Z,41.38
2019-02-08T05:42:59.827Z,41.39
2019-02-08T05:43:59.813Z,41.4
2019-02-08T05:44:59.738Z,41.34
2019-02-08T05:46:00.042Z,41.38
2019-02-08T05:46:59.565Z,41.44
2019-02-08T05:48:00.124Z,41.42
2019-02-08T05:49:00.157Z,41.41
2019-02-08T05:50:00.686Z,41.36
2019-02-08T05:50:59.939Z,41.33
2019-02-08T05:52:00.087Z,41.41
2019-02-08T05:52:59.912Z,41.32
2019-02-08T05:53:59.856Z,41.36
2019-02-08T05:54:59.731Z,41.32
2019-02-08T05:56:00.030Z,41.39
2019-02-08T05:56:59.956Z,41.35
2019-02-08T05:57:59.649Z,41.29
2019-02-08T05:59:01.216Z,41.36
2019-02-08T06:00:00.411Z,41.4
2019-02-08T06:01:01.397Z,41.34
2019-02-08T06:02:00.204Z,41.3
2019-02-08T06:02:59.875Z,41.36
2019-02-08T06:03:59.998Z,41.32
2019-02-08T06:04:59.733Z,41.32
2019-02-08T06:05:59.933Z,41.31
2019-02-08T06:06:59.680Z,41.33
2019-02-08T06:08:00.406Z,41.3
2019-02-08T06:08:59.567Z,41.32
2019-02-08T06:10:00.020Z,41.31
2019-02-08T06:11:00.140Z,41.3
2019-02-08T06:11:59.842Z,41.34
2019-02-08T06:13:00.135Z,41.36
2019-02-08T06:14:00.351Z,41.28
2019-02-08T06:15:00.243Z,41.31
2019-02-08T06:15:59.891Z,41.3
2019-02-08T06:17:00.809Z,41.3
2019-02-08T06:17:59.694Z,41.28
2019-02-08T06:19:00.342Z,41.3
2019-02-08T06:20:00.499Z,41.27
2019-02-08T06:20:59.934Z,41.3
2019-02-08T06:22:00.120Z,41.27
2019-02-08T06:22:59.820Z,41.26
2019-02-08T06:23:59.821Z,41.27
2019-02-08T06:25:05.337Z,41.27
2019-02-08T06:25:59.918Z,41.31
2019-02-08T06:27:00.172Z,41.28
2019-02-08T06:28:00.358Z,41.27
2019-02-08T06:29:00.154Z,41.27
2019-02-08T06:30:00.539Z,41.23
2019-02-08T06:31:00.701Z,41.24
2019-02-08T06:31:59.766Z,41.24
2019-02-08T06:33:00.054Z,41.23
2019-02-08T06:33:59.834Z,41.26
2019-02-08T06:35:00.511Z,41.26
2019-02-08T06:35:59.998Z,41.26
2019-02-08T06:36:59.905Z,41.24
2019-02-08T06:38:00.280Z,41.26
2019-02-08T06:38:59.533Z,41.22
2019-02-08T06:40:00.525Z,41.26
2019-02-08T06:40:59.550Z,41.28
2019-02-08T06:41:59.695Z,41.28
2019-02-08T06:42:59.989Z,41.29
2019-02-08T06:44:00.599Z,41.32
2019-02-08T06:44:59.963Z,41.29
2019-02-08T06:45:59.869Z,41.28
2019-02-08T06:46:59.628Z,41.29
2019-02-08T06:48:00.109Z,41.26
2019-02-08T06:49:00.479Z,41.28
2019-02-08T06:49:59.983Z,41.37
2019-02-08T06:51:00.104Z,41.29
2019-02-08T06:51:59.619Z,41.33
2019-02-08T06:52:59.601Z,41.32
2019-02-08T06:53:59.890Z,41.32
2019-02-08T06:54:59.912Z,41.3
2019-02-08T06:55:59.942Z,41.38
2019-02-08T06:56:59.576Z,41.29
2019-02-08T06:57:59.840Z,41.32
2019-02-08T06:58:59.877Z,41.26
2019-02-08T06:59:59.747Z,41.27
2019-02-08T07:00:59.749Z,41.33
2019-02-08T07:01:59.940Z,41.29
2019-02-08T07:02:59.817Z,41.32
2019-02-08T07:04:01.537Z,41.34
2019-02-08T07:04:59.760Z,41.37
2019-02-08T07:05:59.968Z,41.29
2019-02-08T07:06:59.774Z,41.33
2019-02-08T07:08:00.286Z,41.33
2019-02-08T07:09:00.330Z,41.32
2019-02-08T07:09:59.975Z,41.32
2019-02-08T07:11:00.004Z,41.29
2019-02-08T07:11:59.455Z,41.27
2019-02-08T07:13:00.169Z,41.31
2019-02-08T07:14:01.463Z,41.25
2019-02-08T07:14:59.534Z,41.29
2019-02-08T07:15:59.609Z,41.27
2019-02-08T07:17:00.818Z,41.25
2019-02-08T07:17:59.535Z,41.27
2019-02-08T07:18:59.875Z,41.26
2019-02-08T07:20:00.397Z,41.23
2019-02-08T07:21:00.071Z,41.25
2019-02-08T07:22:00.215Z,41.23
2019-02-08T07:22:59.662Z,41.3
2019-02-08T07:24:00.359Z,41.23
2019-02-08T07:25:00.047Z,41.21
2019-02-08T07:26:00.999Z,41.25
2019-02-08T07:27:00.384Z,41.23
2019-02-08T07:27:59.941Z,41.21
2019-02-08T07:29:00.045Z,41.31
2019-02-08T07:30:00.317Z,41.25
2019-02-08T07:31:00.015Z,41.21
2019-02-08T07:32:00.493Z,41.21
2019-02-08T07:33:00.082Z,41.25
2019-02-08T07:33:59.586Z,41.21
2019-02-08T07:35:00.281Z,41.27
2019-02-08T07:36:00.136Z,41.23
2019-02-08T07:36:59.930Z,41.22
2019-02-08T07:38:01.635Z,41.23
2019-02-08T07:38:59.576Z,41.23
2019-02-08T07:40:00.346Z,41.25
2019-02-08T07:40:59.411Z,41.26
2019-02-08T07:41:59.720Z,41.23
2019-02-08T07:43:01.060Z,41.23
2019-02-08T07:44:01.525Z,41.22
2019-02-08T07:45:00.282Z,41.22
2019-02-08T07:45:59.597Z,41.26
2019-02-08T07:46:59.769Z,41.23
2019-02-08T07:48:00.253Z,41.23
2019-02-08T07:49:01.619Z,41.3
2019-02-08T07:50:00.358Z,41.25
2019-02-08T07:50:59.567Z,41.26
2019-02-08T07:52:00.125Z,41.27
2019-02-08T07:53:00.513Z,41.26
2019-02-08T07:54:00.018Z,41.26
2019-02-08T07:55:01.409Z,41.28
2019-02-08T07:56:00.073Z,41.31
2019-02-08T07:57:00.448Z,41.3
2019-02-08T07:57:59.845Z,41.26
2019-02-08T07:58:59.860Z,41.26
2019-02-08T07:59:59.763Z,41.25
2019-02-08T08:00:59.731Z,41.29
2019-02-08T08:01:59.648Z,41.29
2019-02-08T08:03:00.102Z,41.27
2019-02-08T08:04:01.993Z,41.26
2019-02-08T08:04:59.517Z,41.28
2019-02-08T08:05:59.873Z,41.27
2019-02-08T08:06:59.801Z,41.26
2019-02-08T08:08:00.695Z,41.25
2019-02-08T08:08:59.605Z,41.29
2019-02-08T08:09:59.960Z,41.26
2019-02-08T08:10:59.811Z,41.24
2019-02-08T08:11:59.564Z,41.25
2019-02-08T08:12:59.990Z,41.24
2019-02-08T08:13:59.594Z,41.27
2019-02-08T08:14:59.426Z,41.2
2019-02-08T08:16:00.130Z,41.22
2019-02-08T08:17:00.011Z,41.22
2019-02-08T08:18:00.413Z,41.19
2019-02-08T08:19:00.226Z,41.26
2019-02-08T08:20:00.045Z,41.27
2019-02-08T08:20:59.922Z,41.22
2019-02-08T08:22:00.257Z,41.19
2019-02-08T08:22:59.950Z,41.21
2019-02-08T08:23:59.975Z,41.2
2019-02-08T08:25:00.093Z,41.23
2019-02-08T08:25:59.769Z,41.23
2019-02-08T08:26:59.546Z,41.22
2019-02-08T08:28:00.068Z,41.21
2019-02-08T08:29:00.082Z,41.23
2019-02-08T08:29:59.550Z,41.19
2019-02-08T08:31:00.119Z,41.21
2019-02-08T08:31:59.617Z,41.24
2019-02-08T08:33:00.138Z,41.22
2019-02-08T08:33:59.720Z,41.23
2019-02-08T08:35:00.033Z,41.21
2019-02-08T08:36:00.112Z,41.23
2019-02-08T08:36:59.634Z,41.23
2019-02-08T08:37:59.891Z,41.21
2019-02-08T08:38:59.980Z,41.23
2019-02-08T08:39:59.655Z,41.22
2019-02-08T08:40:59.969Z,41.19
2019-02-08T08:42:00.019Z,41.18
2019-02-08T08:43:00.096Z,41.21
2019-02-08T08:44:00.183Z,41.26
2019-02-08T08:45:00.202Z,41.26
2019-02-08T08:45:59.622Z,41.24
2019-02-08T08:47:00.042Z,41.23
2019-02-08T08:47:59.819Z,41.25
2019-02-08T08:49:00.119Z,41.25
2019-02-08T08:50:00.024Z,41.24
2019-02-08T08:50:59.844Z,41.21
2019-02-08T08:51:59.863Z,41.25
2019-02-08T08:52:59.872Z,41.25
2019-02-08T08:53:59.685Z,41.23
2019-02-08T08:54:59.874Z,41.26
2019-02-08T08:55:59.745Z,41.24
2019-02-08T08:56:59.512Z,41.23
2019-02-08T08:58:00.114Z,41.18
2019-02-08T08:58:59.892Z,41.19
2019-02-08T08:59:59.598Z,41.19
2019-02-08T09:01:00.118Z,41.14
2019-02-08T09:01:59.952Z,41.21
2019-02-08T09:03:00.278Z,41.16
2019-02-08T09:03:59.524Z,41.17
2019-02-08T09:04:59.549Z,42.05
2019-02-08T09:06:09.001Z,42.06
2019-02-08T09:07:00.247Z,41.65
2019-02-08T09:08:00.464Z,41.64
2019-02-08T09:08:59.540Z,41.56
2019-02-08T09:09:59.852Z,41.46
2019-02-08T09:11:00.239Z,41.59
2019-02-08T09:11:59.448Z,42.32
2019-02-08T09:12:59.812Z,42.86
2019-02-08T09:13:59.983Z,42.69
2019-02-08T09:14:59.546Z,42.5
2019-02-08T09:16:00.002Z,42.25
2019-02-08T09:16:59.531Z,42.35
2019-02-08T09:17:59.616Z,42.13
2019-02-08T09:18:59.752Z,42.24
2019-02-08T09:19:59.720Z,42.03
2019-02-08T09:20:59.960Z,41.98
2019-02-08T09:21:59.734Z,41.99
2019-02-08T09:22:59.855Z,41.87
2019-02-08T09:23:59.639Z,41.93
2019-02-08T09:24:59.499Z,41.76
2019-02-08T09:25:59.990Z,41.82
2019-02-08T09:26:59.890Z,42.21
2019-02-08T09:28:00.753Z,42.86
2019-02-08T09:28:59.394Z,42.16
2019-02-08T09:30:00.460Z,41.88
2019-02-08T09:30:59.974Z,41.75
2019-02-08T09:31:59.908Z,41.62
2019-02-08T09:32:59.904Z,41.61
2019-02-08T09:33:59.429Z,41.74
2019-02-08T09:35:00.261Z,41.87
2019-02-08T09:36:00.052Z,41.62
2019-02-08T09:37:01.426Z,41.89
2019-02-08T09:37:59.610Z,41.72
2019-02-08T09:39:01.502Z,41.54
2019-02-08T09:39:59.629Z,40.83
2019-02-08T09:40:59.514Z,42.33
2019-02-08T09:41:59.673Z,41.44
2019-02-08T09:42:59.712Z,41.13
2019-02-08T09:43:59.913Z,40.9
2019-02-08T09:44:59.901Z,41.72
2019-02-08T09:46:00.130Z,40.87
2019-02-08T09:46:59.965Z,40.43
2019-02-08T09:47:59.877Z,40.6
2019-02-08T09:48:59.946Z,41.34
2019-02-08T09:49:59.870Z,42.19
2019-02-08T09:50:59.982Z,41.93
2019-02-08T09:51:59.645Z,42.36
2019-02-08T09:53:00.094Z,41.85
2019-02-08T09:53:59.802Z,42.17
2019-02-08T09:54:59.619Z,41.57
2019-02-08T09:56:00.244Z,41.49
2019-02-08T09:56:59.398Z,42.01
2019-02-08T09:57:59.826Z,41.94
2019-02-08T09:59:00.472Z,41.47
2019-02-08T10:00:00.094Z,41.3
2019-02-08T10:01:00.025Z,41.29
2019-02-08T10:02:00.026Z,41.1
2019-02-08T10:02:59.787Z,41.07
2019-02-08T10:04:00.262Z,41
2019-02-08T10:04:59.843Z,40.9
2019-02-08T10:05:59.866Z,40.94
2019-02-08T10:06:59.541Z,40.97
2019-02-08T10:08:00.071Z,40.81
2019-02-08T10:09:00.567Z,40.81
2019-02-08T10:09:59.778Z,40.84
2019-02-08T10:10:59.867Z,40.8
2019-02-08T10:12:01.295Z,40.8
2019-02-08T10:12:59.457Z,40.76
2019-02-08T10:14:00.145Z,40.75
2019-02-08T10:14:59.630Z,40.76
2019-02-08T10:16:00.052Z,40.72
2019-02-08T10:16:59.866Z,40.72
2019-02-08T10:17:59.844Z,40.76
2019-02-08T10:18:59.865Z,40.64
2019-02-08T10:20:00.613Z,40.64
2019-02-08T10:21:00.388Z,40.55
2019-02-08T10:21:59.634Z,40.59
2019-02-08T10:22:59.779Z,41.16
2019-02-08T10:23:59.899Z,41.22
2019-02-08T10:25:00.884Z,41.39
2019-02-08T10:26:05.832Z,41.39
2019-02-08T10:26:59.981Z,41.42
2019-02-08T10:28:00.113Z,41.42
2019-02-08T10:29:00.218Z,41.5
2019-02-08T10:30:00.383Z,41.41
2019-02-08T10:30:59.602Z,41.53
2019-02-08T10:32:00.161Z,41.53
2019-02-08T10:33:00.067Z,41.46
2019-02-08T10:33:59.563Z,41.45
2019-02-08T10:34:59.660Z,41.48
2019-02-08T10:36:01.414Z,41.49
2019-02-08T10:37:00.018Z,41.52
2019-02-08T10:37:59.974Z,41.52
2019-02-08T10:39:00.007Z,41.52
2019-02-08T10:39:59.830Z,41.7
2019-02-08T10:40:59.738Z,41.84
2019-02-08T10:41:59.907Z,41.89
2019-02-08T10:43:01.508Z,41.98
2019-02-08T10:43:59.541Z,42.05
2019-02-08T10:45:00.518Z,42.31
2019-02-08T10:46:00.139Z,42.3
2019-02-08T10:46:59.415Z,42.12
2019-02-08T10:48:00.102Z,42.2
2019-02-08T10:49:00.070Z,42.72
2019-02-08T10:49:59.794Z,42.78
2019-02-08T10:51:00.297Z,42.59
2019-02-08T10:51:59.907Z,41.26
2019-02-08T10:53:00.436Z,41.49
2019-02-08T10:53:59.901Z,41.96
2019-02-08T10:54:59.843Z,41.69
2019-02-08T10:56:00.169Z,42.58
2019-02-08T10:56:59.961Z,42.03
2019-02-08T10:57:59.558Z,41.82
2019-02-08T10:59:00.152Z,41.79
2019-02-08T10:59:59.667Z,41.86
2019-02-08T11:01:00.166Z,41.91
2019-02-08T11:01:59.634Z,42.29
2019-02-08T11:02:59.845Z,42.9
2019-02-08T11:03:59.760Z,42.77
2019-02-08T11:04:59.972Z,43.75
2019-02-08T11:05:59.900Z,42.94
2019-02-08T11:07:00.042Z,43.42
2019-02-08T11:08:00.612Z,43.43
2019-02-08T11:09:01.338Z,43.21
2019-02-08T11:10:00.355Z,42.28
2019-02-08T11:11:00.112Z,42.57
2019-02-08T11:11:59.982Z,42.2
2019-02-08T11:12:59.908Z,42.3
2019-02-08T11:13:59.962Z,42.46
2019-02-08T11:15:00.317Z,41.97
2019-02-08T11:16:00.156Z,42.21
2019-02-08T11:16:59.720Z,42.07
2019-02-08T11:18:00.505Z,42.11
2019-02-08T11:19:00.375Z,42.23
2019-02-08T11:20:00.344Z,41.9
2019-02-08T11:21:00.102Z,41.94
2019-02-08T11:22:00.017Z,42.27
2019-02-08T11:23:00.003Z,41.81
2019-02-08T11:24:00.009Z,42.02
2019-02-08T11:24:59.710Z,42.32
2019-02-08T11:26:01.411Z,42.16
2019-02-08T11:27:00.260Z,42.1
2019-02-08T11:28:00.015Z,42.06
2019-02-08T11:28:59.622Z,41.88
2019-02-08T11:30:00.519Z,41.95
2019-02-08T11:30:59.620Z,41.92
2019-02-08T11:31:59.947Z,42.27
2019-02-08T11:32:59.527Z,42.14
2019-02-08T11:33:59.760Z,41.92
2019-02-08T11:34:59.687Z,41.67
2019-02-08T11:35:59.655Z,41.51
2019-02-08T11:36:59.955Z,41.48
2019-02-08T11:37:59.724Z,41.5
2019-02-08T11:39:01.432Z,41.45
2019-02-08T11:39:59.524Z,41.43
2019-02-08T11:41:00.856Z,41.36
2019-02-08T11:41:59.897Z,41.32
2019-02-08T11:43:00.048Z,41.3
2019-02-08T11:43:59.880Z,41.32
2019-02-08T11:44:59.900Z,41.26
2019-02-08T11:45:59.665Z,41.23
2019-02-08T11:46:59.961Z,41.28
2019-02-08T11:47:59.355Z,41.27
2019-02-08T11:49:01.381Z,41.23
2019-02-08T11:49:59.672Z,41.21
2019-02-08T11:50:59.537Z,41.57
2019-02-08T11:52:00.320Z,41.67
2019-02-08T11:52:59.826Z,41.64
2019-02-08T11:53:59.960Z,41.71
2019-02-08T11:54:59.531Z,41.78
2019-02-08T11:55:59.865Z,41.66
2019-02-08T11:57:00.029Z,41.83
2019-02-08T11:57:59.983Z,41.72
2019-02-08T11:58:59.553Z,41.7
2019-02-08T11:59:59.706Z,41.52
2019-02-08T12:00:59.560Z,41.52
2019-02-08T12:02:01.313Z,41.51
2019-02-08T12:03:00.588Z,41.52
2019-02-08T12:04:01.358Z,41.53
2019-02-08T12:04:59.886Z,41.59
2019-02-08T12:06:00.238Z,41.45
2019-02-08T12:06:59.524Z,41.7
2019-02-08T12:08:00.266Z,41.51
2019-02-08T12:08:59.818Z,41.48
2019-02-08T12:10:01.400Z,41.4
2019-02-08T12:10:59.954Z,41.36
2019-02-08T12:12:01.279Z,41.56
2019-02-08T12:12:59.671Z,41.6
2019-02-08T12:13:59.953Z,41.64
2019-02-08T12:14:59.521Z,41.49
2019-02-08T12:15:59.610Z,41.43
2019-02-08T12:17:00.571Z,41.74
2019-02-08T12:17:59.841Z,41.44
2019-02-08T12:19:00.080Z,41.34
2019-02-08T12:19:59.887Z,41.38
2019-02-08T12:21:00.601Z,41.28
2019-02-08T12:22:00.054Z,41.3
2019-02-08T12:22:59.568Z,41.34
2019-02-08T12:24:00.936Z,41.25
2019-02-08T12:25:00.027Z,41.06
2019-02-08T12:25:59.861Z,41.3
2019-02-08T12:26:59.415Z,41.2
2019-02-08T12:28:00.333Z,41.2
2019-02-08T12:28:59.441Z,41.06
2019-02-08T12:29:59.823Z,40.98
2019-02-08T12:31:01.511Z,40.95
2019-02-08T12:31:59.816Z,40.9
2019-02-08T12:32:59.928Z,41.07
2019-02-08T12:34:00.109Z,41.1
2019-02-08T12:34:59.809Z,41.16
2019-02-08T12:36:00.439Z,41.01
2019-02-08T12:36:59.305Z,41.06
2019-02-08T12:37:59.545Z,40.99
2019-02-08T12:39:00.624Z,40.97
2019-02-08T12:40:01.328Z,41.09
2019-02-08T12:40:59.974Z,41.03
2019-02-08T12:41:59.765Z,41.23
2019-02-08T12:42:59.460Z,41.47
2019-02-08T12:43:59.830Z,41.09
2019-02-08T12:44:59.982Z,41.22
2019-02-08T12:45:59.434Z,41.18
2019-02-08T12:46:59.609Z,41.03
2019-02-08T12:47:59.995Z,41.39
2019-02-08T12:48:59.542Z,41.26
2019-02-08T12:49:59.733Z,41.23
2019-02-08T12:50:59.917Z,41.56
2019-02-08T12:51:59.934Z,41.43
2019-02-08T12:53:00.159Z,41.18
2019-02-08T12:54:01.332Z,41.05
2019-02-08T12:54:59.921Z,40.96